sensor_id;sensor_type;location;lat;lon;timestamp;temperature;humidity
67598;DHT22;62026;39.230;9.122;2023-09-18T00:00:53;27.40;69.50
67598;DHT22;62026;39.230;9.122;2023-09-18T00:03:20;27.40;69.50
67598;DHT22;62026;39.230;9.122;2023-09-18T00:05:50;27.40;69.40
67598;DHT22;62026;39.230;9.122;2023-09-18T00:08:18;27.40;69.70
67598;DHT22;62026;39.230;9.122;2023-09-18T00:10:53;27.50;69.80
67598;DHT22;62026;39.230;9.122;2023-09-18T00:13:20;27.40;70.00
67598;DHT22;62026;39.230;9.122;2023-09-18T00:15:47;27.40;70.30
67598;DHT22;62026;39.230;9.122;2023-09-18T00:18:15;27.40;70.40
67598;DHT22;62026;39.230;9.122;2023-09-18T00:20:42;27.40;70.30
67598;DHT22;62026;39.230;9.122;2023-09-18T00:23:09;27.40;70.60
67598;DHT22;62026;39.230;9.122;2023-09-18T00:25:35;27.40;70.60
67598;DHT22;62026;39.230;9.122;2023-09-18T00:28:02;27.40;70.90
67598;DHT22;62026;39.230;9.122;2023-09-18T00:30:29;27.40;70.70
67598;DHT22;62026;39.230;9.122;2023-09-18T00:32:54;27.40;70.90
67598;DHT22;62026;39.230;9.122;2023-09-18T00:35:20;27.40;71.10
67598;DHT22;62026;39.230;9.122;2023-09-18T00:37:48;27.40;71.30
67598;DHT22;62026;39.230;9.122;2023-09-18T00:40:14;27.40;71.30
67598;DHT22;62026;39.230;9.122;2023-09-18T00:42:40;27.40;71.30
67598;DHT22;62026;39.230;9.122;2023-09-18T00:45:07;27.40;71.30
67598;DHT22;62026;39.230;9.122;2023-09-18T00:47:35;27.40;71.50
67598;DHT22;62026;39.230;9.122;2023-09-18T00:50:03;27.30;71.60
67598;DHT22;62026;39.230;9.122;2023-09-18T00:52:32;27.30;71.80
67598;DHT22;62026;39.230;9.122;2023-09-18T00:55:00;27.30;72.00
67598;DHT22;62026;39.230;9.122;2023-09-18T00:57:26;27.30;72.10
67598;DHT22;62026;39.230;9.122;2023-09-18T00:59:52;27.20;72.00
67598;DHT22;62026;39.230;9.122;2023-09-18T01:02:18;27.20;72.20
67598;DHT22;62026;39.230;9.122;2023-09-18T01:04:47;27.20;72.20
67598;DHT22;62026;39.230;9.122;2023-09-18T01:07:15;27.20;72.20
67598;DHT22;62026;39.230;9.122;2023-09-18T01:09:41;27.20;72.30
67598;DHT22;62026;39.230;9.122;2023-09-18T01:12:18;27.20;72.10
67598;DHT22;62026;39.230;9.122;2023-09-18T01:17:43;27.20;72.10
67598;DHT22;62026;39.230;9.122;2023-09-18T01:20:11;27.20;72.20
67598;DHT22;62026;39.230;9.122;2023-09-18T01:22:37;27.20;72.10
67598;DHT22;62026;39.230;9.122;2023-09-18T01:25:03;27.20;72.10
67598;DHT22;62026;39.230;9.122;2023-09-18T01:27:31;27.20;72.00
67598;DHT22;62026;39.230;9.122;2023-09-18T01:29:57;27.20;71.90
67598;DHT22;62026;39.230;9.122;2023-09-18T01:32:26;27.20;72.00
67598;DHT22;62026;39.230;9.122;2023-09-18T01:34:57;27.20;72.00
67598;DHT22;62026;39.230;9.122;2023-09-18T01:37:28;27.20;72.00
67598;DHT22;62026;39.230;9.122;2023-09-18T01:39:56;27.20;72.10
67598;DHT22;62026;39.230;9.122;2023-09-18T01:42:29;27.20;72.00
67598;DHT22;62026;39.230;9.122;2023-09-18T01:44:55;27.20;72.10
67598;DHT22;62026;39.230;9.122;2023-09-18T01:47:22;27.20;72.00
67598;DHT22;62026;39.230;9.122;2023-09-18T01:49:52;27.20;72.00
67598;DHT22;62026;39.230;9.122;2023-09-18T01:52:18;27.10;71.90
67598;DHT22;62026;39.230;9.122;2023-09-18T01:54:44;27.10;71.80
67598;DHT22;62026;39.230;9.122;2023-09-18T01:57:11;27.10;71.60
67598;DHT22;62026;39.230;9.122;2023-09-18T01:59:38;27.10;71.50
67598;DHT22;62026;39.230;9.122;2023-09-18T02:02:05;27.10;71.30
67598;DHT22;62026;39.230;9.122;2023-09-18T02:04:35;27.00;71.20
67598;DHT22;62026;39.230;9.122;2023-09-18T02:07:02;27.00;70.80
67598;DHT22;62026;39.230;9.122;2023-09-18T02:09:28;27.00;70.50
67598;DHT22;62026;39.230;9.122;2023-09-18T02:11:55;27.00;70.50
67598;DHT22;62026;39.230;9.122;2023-09-18T02:14:21;27.00;70.30
67598;DHT22;62026;39.230;9.122;2023-09-18T02:16:47;26.90;70.30
67598;DHT22;62026;39.230;9.122;2023-09-18T02:19:15;26.90;70.10
67598;DHT22;62026;39.230;9.122;2023-09-18T02:21:43;26.90;70.00
67598;DHT22;62026;39.230;9.122;2023-09-18T02:24:10;26.90;69.70
67598;DHT22;62026;39.230;9.122;2023-09-18T02:26:36;26.90;69.20
67598;DHT22;62026;39.230;9.122;2023-09-18T02:29:11;26.80;68.90
67598;DHT22;62026;39.230;9.122;2023-09-18T02:31:39;26.80;68.80
67598;DHT22;62026;39.230;9.122;2023-09-18T02:34:05;26.90;68.90
67598;DHT22;62026;39.230;9.122;2023-09-18T02:36:33;26.80;68.90
67598;DHT22;62026;39.230;9.122;2023-09-18T02:38:59;26.80;69.10
67598;DHT22;62026;39.230;9.122;2023-09-18T02:41:25;26.80;69.10
67598;DHT22;62026;39.230;9.122;2023-09-18T02:43:51;26.80;69.40
67598;DHT22;62026;39.230;9.122;2023-09-18T02:46:17;26.70;69.40
67598;DHT22;62026;39.230;9.122;2023-09-18T02:48:43;26.70;69.60
67598;DHT22;62026;39.230;9.122;2023-09-18T02:51:09;26.70;69.60
67598;DHT22;62026;39.230;9.122;2023-09-18T02:53:35;26.70;69.50
67598;DHT22;62026;39.230;9.122;2023-09-18T02:56:01;26.70;69.50
67598;DHT22;62026;39.230;9.122;2023-09-18T02:58:27;26.60;69.40
67598;DHT22;62026;39.230;9.122;2023-09-18T03:00:56;26.60;69.10
67598;DHT22;62026;39.230;9.122;2023-09-18T03:03:28;26.60;69.10
67598;DHT22;62026;39.230;9.122;2023-09-18T03:06:00;26.50;69.00
67598;DHT22;62026;39.230;9.122;2023-09-18T03:08:27;26.60;68.80
67598;DHT22;62026;39.230;9.122;2023-09-18T03:10:54;26.50;68.80
67598;DHT22;62026;39.230;9.122;2023-09-18T03:13:22;26.50;68.60
67598;DHT22;62026;39.230;9.122;2023-09-18T03:15:48;26.50;68.20
67598;DHT22;62026;39.230;9.122;2023-09-18T03:18:14;26.50;68.20
67598;DHT22;62026;39.230;9.122;2023-09-18T03:20:42;26.60;68.40
67598;DHT22;62026;39.230;9.122;2023-09-18T03:23:08;26.60;68.40
67598;DHT22;62026;39.230;9.122;2023-09-18T03:25:35;26.60;68.50
67598;DHT22;62026;39.230;9.122;2023-09-18T03:28:03;26.60;68.60
67598;DHT22;62026;39.230;9.122;2023-09-18T03:30:32;26.60;68.90
67598;DHT22;62026;39.230;9.122;2023-09-18T03:32:58;26.60;69.00
67598;DHT22;62026;39.230;9.122;2023-09-18T03:35:25;26.60;69.00
67598;DHT22;62026;39.230;9.122;2023-09-18T03:37:52;26.60;69.10
67598;DHT22;62026;39.230;9.122;2023-09-18T03:40:22;26.60;69.00
67598;DHT22;62026;39.230;9.122;2023-09-18T03:42:49;26.60;69.20
67598;DHT22;62026;39.230;9.122;2023-09-18T03:45:15;26.60;69.30
67598;DHT22;62026;39.230;9.122;2023-09-18T03:47:44;26.60;69.40
67598;DHT22;62026;39.230;9.122;2023-09-18T03:50:11;26.60;69.60
67598;DHT22;62026;39.230;9.122;2023-09-18T03:52:38;26.60;69.70
67598;DHT22;62026;39.230;9.122;2023-09-18T03:55:06;26.60;70.00
67598;DHT22;62026;39.230;9.122;2023-09-18T03:57:34;26.60;70.10
67598;DHT22;62026;39.230;9.122;2023-09-18T04:00:00;26.60;70.30
67598;DHT22;62026;39.230;9.122;2023-09-18T04:02:26;26.60;70.50
67598;DHT22;62026;39.230;9.122;2023-09-18T04:04:53;26.60;70.60
67598;DHT22;62026;39.230;9.122;2023-09-18T04:07:20;26.60;70.70
67598;DHT22;62026;39.230;9.122;2023-09-18T04:09:46;26.60;70.70
67598;DHT22;62026;39.230;9.122;2023-09-18T04:12:14;26.50;70.70
67598;DHT22;62026;39.230;9.122;2023-09-18T04:14:40;26.50;70.70
67598;DHT22;62026;39.230;9.122;2023-09-18T04:17:06;26.50;70.70
67598;DHT22;62026;39.230;9.122;2023-09-18T04:19:32;26.50;70.50
67598;DHT22;62026;39.230;9.122;2023-09-18T04:21:58;26.50;70.40
67598;DHT22;62026;39.230;9.122;2023-09-18T04:24:25;26.50;70.30
67598;DHT22;62026;39.230;9.122;2023-09-18T04:26:52;26.50;70.20
67598;DHT22;62026;39.230;9.122;2023-09-18T04:29:19;26.50;69.90
67598;DHT22;62026;39.230;9.122;2023-09-18T04:31:47;26.50;69.30
67598;DHT22;62026;39.230;9.122;2023-09-18T04:34:14;26.40;69.00
67598;DHT22;62026;39.230;9.122;2023-09-18T04:36:40;26.40;68.80
67598;DHT22;62026;39.230;9.122;2023-09-18T04:39:07;26.40;68.50
67598;DHT22;62026;39.230;9.122;2023-09-18T04:41:34;26.30;68.50
67598;DHT22;62026;39.230;9.122;2023-09-18T04:44:03;26.40;68.30
67598;DHT22;62026;39.230;9.122;2023-09-18T04:46:31;26.40;68.10
67598;DHT22;62026;39.230;9.122;2023-09-18T04:48:57;26.30;68.00
67598;DHT22;62026;39.230;9.122;2023-09-18T04:51:23;26.30;68.00
67598;DHT22;62026;39.230;9.122;2023-09-18T04:53:49;26.30;67.80
67598;DHT22;62026;39.230;9.122;2023-09-18T04:56:17;26.30;68.00
67598;DHT22;62026;39.230;9.122;2023-09-18T04:58:43;26.30;68.00
67598;DHT22;62026;39.230;9.122;2023-09-18T05:01:09;26.30;68.20
67598;DHT22;62026;39.230;9.122;2023-09-18T05:03:38;26.30;68.10
67598;DHT22;62026;39.230;9.122;2023-09-18T05:06:04;26.20;68.20
67598;DHT22;62026;39.230;9.122;2023-09-18T05:08:30;26.30;68.20
67598;DHT22;62026;39.230;9.122;2023-09-18T05:10:56;26.20;68.30
67598;DHT22;62026;39.230;9.122;2023-09-18T05:13:23;26.30;68.30
67598;DHT22;62026;39.230;9.122;2023-09-18T05:15:49;26.30;68.40
67598;DHT22;62026;39.230;9.122;2023-09-18T05:18:15;26.30;68.50
67598;DHT22;62026;39.230;9.122;2023-09-18T05:20:42;26.30;68.50
67598;DHT22;62026;39.230;9.122;2023-09-18T05:23:08;26.30;68.40
67598;DHT22;62026;39.230;9.122;2023-09-18T05:25:34;26.30;68.40
67598;DHT22;62026;39.230;9.122;2023-09-18T05:28:03;26.30;68.30
67598;DHT22;62026;39.230;9.122;2023-09-18T05:30:34;26.30;68.40
67598;DHT22;62026;39.230;9.122;2023-09-18T05:33:05;26.30;68.30
67598;DHT22;62026;39.230;9.122;2023-09-18T05:35:32;26.30;68.20
67598;DHT22;62026;39.230;9.122;2023-09-18T05:37:58;26.30;68.30
67598;DHT22;62026;39.230;9.122;2023-09-18T05:40:25;26.30;68.20
67598;DHT22;62026;39.230;9.122;2023-09-18T05:42:53;26.40;68.20
67598;DHT22;62026;39.230;9.122;2023-09-18T05:45:20;26.40;67.90
67598;DHT22;62026;39.230;9.122;2023-09-18T05:47:47;26.40;67.90
67598;DHT22;62026;39.230;9.122;2023-09-18T05:50:14;26.40;67.90
67598;DHT22;62026;39.230;9.122;2023-09-18T05:52:51;26.50;67.90
67598;DHT22;62026;39.230;9.122;2023-09-18T05:55:17;26.50;68.00
67598;DHT22;62026;39.230;9.122;2023-09-18T05:57:43;26.50;68.00
67598;DHT22;62026;39.230;9.122;2023-09-18T06:00:10;26.50;68.10
67598;DHT22;62026;39.230;9.122;2023-09-18T06:02:40;26.50;68.00
67598;DHT22;62026;39.230;9.122;2023-09-18T06:05:06;26.60;68.00
67598;DHT22;62026;39.230;9.122;2023-09-18T06:07:36;26.60;67.80
67598;DHT22;62026;39.230;9.122;2023-09-18T06:10:03;26.60;67.80
67598;DHT22;62026;39.230;9.122;2023-09-18T06:12:29;26.70;67.80
67598;DHT22;62026;39.230;9.122;2023-09-18T06:14:55;26.70;67.70
67598;DHT22;62026;39.230;9.122;2023-09-18T06:17:21;26.70;67.60
67598;DHT22;62026;39.230;9.122;2023-09-18T06:19:48;26.80;67.40
67598;DHT22;62026;39.230;9.122;2023-09-18T06:22:14;26.80;67.30
67598;DHT22;62026;39.230;9.122;2023-09-18T06:24:40;26.80;67.20
67598;DHT22;62026;39.230;9.122;2023-09-18T06:27:06;26.80;67.00
67598;DHT22;62026;39.230;9.122;2023-09-18T06:29:33;26.80;66.90
67598;DHT22;62026;39.230;9.122;2023-09-18T06:32:00;26.80;66.80
67598;DHT22;62026;39.230;9.122;2023-09-18T06:34:26;26.80;66.50
67598;DHT22;62026;39.230;9.122;2023-09-18T06:36:54;26.80;66.40
67598;DHT22;62026;39.230;9.122;2023-09-18T06:39:20;26.80;66.20
67598;DHT22;62026;39.230;9.122;2023-09-18T06:41:47;26.90;65.90
67598;DHT22;62026;39.230;9.122;2023-09-18T06:44:14;27.00;65.60
67598;DHT22;62026;39.230;9.122;2023-09-18T06:46:39;27.00;65.30
67598;DHT22;62026;39.230;9.122;2023-09-18T06:49:06;27.10;64.90
67598;DHT22;62026;39.230;9.122;2023-09-18T06:51:32;27.20;64.90
67598;DHT22;62026;39.230;9.122;2023-09-18T06:53:58;27.20;65.20
67598;DHT22;62026;39.230;9.122;2023-09-18T06:56:24;27.20;65.40
67598;DHT22;62026;39.230;9.122;2023-09-18T06:58:51;27.30;65.40
67598;DHT22;62026;39.230;9.122;2023-09-18T07:01:21;27.30;65.50
67598;DHT22;62026;39.230;9.122;2023-09-18T07:03:47;27.30;65.50
67598;DHT22;62026;39.230;9.122;2023-09-18T07:06:14;27.30;65.70
67598;DHT22;62026;39.230;9.122;2023-09-18T07:08:47;27.40;65.60
67598;DHT22;62026;39.230;9.122;2023-09-18T07:11:17;27.40;65.50
67598;DHT22;62026;39.230;9.122;2023-09-18T07:13:43;27.50;65.60
67598;DHT22;62026;39.230;9.122;2023-09-18T07:16:09;27.70;65.20
67598;DHT22;62026;39.230;9.122;2023-09-18T07:18:36;27.80;64.00
67598;DHT22;62026;39.230;9.122;2023-09-18T07:21:02;28.00;63.50
67598;DHT22;62026;39.230;9.122;2023-09-18T07:23:28;28.10;63.50
67598;DHT22;62026;39.230;9.122;2023-09-18T07:25:54;28.20;63.60
67598;DHT22;62026;39.230;9.122;2023-09-18T07:28:20;28.20;63.70
67598;DHT22;62026;39.230;9.122;2023-09-18T07:30:47;28.30;63.70
67598;DHT22;62026;39.230;9.122;2023-09-18T07:33:13;28.40;63.60
67598;DHT22;62026;39.230;9.122;2023-09-18T07:35:47;28.50;63.30
67598;DHT22;62026;39.230;9.122;2023-09-18T07:38:14;28.70;63.20
67598;DHT22;62026;39.230;9.122;2023-09-18T07:40:41;29.00;62.70
67598;DHT22;62026;39.230;9.122;2023-09-18T07:43:07;29.20;62.10
67598;DHT22;62026;39.230;9.122;2023-09-18T07:45:34;29.40;61.40
67598;DHT22;62026;39.230;9.122;2023-09-18T07:48:00;29.50;60.50
67598;DHT22;62026;39.230;9.122;2023-09-18T07:50:26;29.60;59.50
67598;DHT22;62026;39.230;9.122;2023-09-18T07:52:52;29.70;59.10
67598;DHT22;62026;39.230;9.122;2023-09-18T07:55:18;29.80;59.00
67598;DHT22;62026;39.230;9.122;2023-09-18T07:57:44;29.80;58.90
67598;DHT22;62026;39.230;9.122;2023-09-18T08:00:11;29.90;58.80
67598;DHT22;62026;39.230;9.122;2023-09-18T08:02:39;29.90;58.70
67598;DHT22;62026;39.230;9.122;2023-09-18T08:05:06;30.00;58.30
67598;DHT22;62026;39.230;9.122;2023-09-18T08:07:34;30.20;58.00
67598;DHT22;62026;39.230;9.122;2023-09-18T08:10:04;30.30;57.30
67598;DHT22;62026;39.230;9.122;2023-09-18T08:12:32;30.50;57.00
67598;DHT22;62026;39.230;9.122;2023-09-18T08:14:58;30.70;56.60
67598;DHT22;62026;39.230;9.122;2023-09-18T08:17:25;30.80;56.20
67598;DHT22;62026;39.230;9.122;2023-09-18T08:19:52;31.00;55.90
67598;DHT22;62026;39.230;9.122;2023-09-18T08:22:19;31.20;55.50
67598;DHT22;62026;39.230;9.122;2023-09-18T08:24:47;31.30;55.20
67598;DHT22;62026;39.230;9.122;2023-09-18T08:27:15;31.50;54.80
67598;DHT22;62026;39.230;9.122;2023-09-18T08:29:44;31.50;54.70
67598;DHT22;62026;39.230;9.122;2023-09-18T08:32:11;31.60;54.40
67598;DHT22;62026;39.230;9.122;2023-09-18T08:34:37;31.70;54.20
67598;DHT22;62026;39.230;9.122;2023-09-18T08:37:03;31.70;53.70
67598;DHT22;62026;39.230;9.122;2023-09-18T08:39:29;31.50;54.00
67598;DHT22;62026;39.230;9.122;2023-09-18T08:42:02;31.40;53.70
67598;DHT22;62026;39.230;9.122;2023-09-18T08:44:30;31.30;53.40
67598;DHT22;62026;39.230;9.122;2023-09-18T08:46:57;31.20;53.50
67598;DHT22;62026;39.230;9.122;2023-09-18T08:49:24;31.10;53.70
67598;DHT22;62026;39.230;9.122;2023-09-18T08:51:51;31.00;54.30
67598;DHT22;62026;39.230;9.122;2023-09-18T08:54:21;30.90;54.50
67598;DHT22;62026;39.230;9.122;2023-09-18T08:56:53;30.80;54.10
67598;DHT22;62026;39.230;9.122;2023-09-18T08:59:21;30.80;54.10
67598;DHT22;62026;39.230;9.122;2023-09-18T09:01:49;30.70;54.40
67598;DHT22;62026;39.230;9.122;2023-09-18T09:04:15;30.70;54.60
67598;DHT22;62026;39.230;9.122;2023-09-18T09:06:41;30.80;54.20
67598;DHT22;62026;39.230;9.122;2023-09-18T09:09:07;31.10;53.60
67598;DHT22;62026;39.230;9.122;2023-09-18T09:11:34;31.10;52.70
67598;DHT22;62026;39.230;9.122;2023-09-18T09:14:12;31.20;52.30
67598;DHT22;62026;39.230;9.122;2023-09-18T09:16:50;31.40;52.10
67598;DHT22;62026;39.230;9.122;2023-09-18T09:19:17;31.50;51.80
67598;DHT22;62026;39.230;9.122;2023-09-18T09:21:44;31.30;51.60
67598;DHT22;62026;39.230;9.122;2023-09-18T09:24:12;31.30;50.50
67598;DHT22;62026;39.230;9.122;2023-09-18T09:26:41;31.30;50.60
67598;DHT22;62026;39.230;9.122;2023-09-18T09:29:18;31.20;51.30
67598;DHT22;62026;39.230;9.122;2023-09-18T09:31:45;31.10;51.90
67598;DHT22;62026;39.230;9.122;2023-09-18T09:34:12;31.00;51.80
67598;DHT22;62026;39.230;9.122;2023-09-18T09:36:53;30.90;51.30
67598;DHT22;62026;39.230;9.122;2023-09-18T09:39:20;30.70;50.50
67598;DHT22;62026;39.230;9.122;2023-09-18T09:41:48;30.60;50.50
67598;DHT22;62026;39.230;9.122;2023-09-18T09:44:15;30.70;50.60
67598;DHT22;62026;39.230;9.122;2023-09-18T09:46:48;30.80;50.50
67598;DHT22;62026;39.230;9.122;2023-09-18T09:49:15;30.80;50.60
67598;DHT22;62026;39.230;9.122;2023-09-18T09:51:42;30.80;50.50
67598;DHT22;62026;39.230;9.122;2023-09-18T09:54:08;30.90;50.20
67598;DHT22;62026;39.230;9.122;2023-09-18T09:56:44;30.80;49.90
67598;DHT22;62026;39.230;9.122;2023-09-18T09:59:14;30.80;50.00
67598;DHT22;62026;39.230;9.122;2023-09-18T10:01:41;30.80;50.40
67598;DHT22;62026;39.230;9.122;2023-09-18T10:04:14;30.80;50.30
67598;DHT22;62026;39.230;9.122;2023-09-18T10:07:06;30.80;50.20
67598;DHT22;62026;39.230;9.122;2023-09-18T10:09:41;30.70;50.00
67598;DHT22;62026;39.230;9.122;2023-09-18T10:12:12;30.80;49.90
67598;DHT22;62026;39.230;9.122;2023-09-18T10:14:47;30.80;50.10
67598;DHT22;62026;39.230;9.122;2023-09-18T10:17:19;30.80;50.10
67598;DHT22;62026;39.230;9.122;2023-09-18T10:20:02;30.80;50.40
67598;DHT22;62026;39.230;9.122;2023-09-18T10:22:45;30.90;50.10
67598;DHT22;62026;39.230;9.122;2023-09-18T10:25:24;31.10;49.90
67598;DHT22;62026;39.230;9.122;2023-09-18T10:27:52;31.10;49.60
67598;DHT22;62026;39.230;9.122;2023-09-18T10:30:24;31.20;49.20
67598;DHT22;62026;39.230;9.122;2023-09-18T10:32:52;31.40;48.90
67598;DHT22;62026;39.230;9.122;2023-09-18T10:35:19;31.50;48.60
67598;DHT22;62026;39.230;9.122;2023-09-18T10:37:48;31.50;48.70
67598;DHT22;62026;39.230;9.122;2023-09-18T10:40:17;31.40;48.60
67598;DHT22;62026;39.230;9.122;2023-09-18T10:42:45;31.30;48.80
67598;DHT22;62026;39.230;9.122;2023-09-18T10:45:13;31.30;48.80
67598;DHT22;62026;39.230;9.122;2023-09-18T10:47:45;31.30;48.70
67598;DHT22;62026;39.230;9.122;2023-09-18T10:50:27;31.30;48.60
67598;DHT22;62026;39.230;9.122;2023-09-18T10:52:57;31.40;48.60
67598;DHT22;62026;39.230;9.122;2023-09-18T10:55:25;31.50;48.60
67598;DHT22;62026;39.230;9.122;2023-09-18T10:57:59;31.50;48.60
67598;DHT22;62026;39.230;9.122;2023-09-18T11:00:28;31.40;48.70
67598;DHT22;62026;39.230;9.122;2023-09-18T11:03:15;31.50;48.70
67598;DHT22;62026;39.230;9.122;2023-09-18T11:05:46;31.50;48.40
67598;DHT22;62026;39.230;9.122;2023-09-18T11:08:26;31.50;48.10
67598;DHT22;62026;39.230;9.122;2023-09-18T11:10:57;31.50;48.20
67598;DHT22;62026;39.230;9.122;2023-09-18T11:13:31;31.50;48.50
67598;DHT22;62026;39.230;9.122;2023-09-18T11:18:42;31.30;48.80
67598;DHT22;62026;39.230;9.122;2023-09-18T11:21:12;31.20;48.90
67598;DHT22;62026;39.230;9.122;2023-09-18T11:23:40;31.20;48.80
67598;DHT22;62026;39.230;9.122;2023-09-18T11:26:09;31.20;48.90
67598;DHT22;62026;39.230;9.122;2023-09-18T11:28:37;31.20;48.90
67598;DHT22;62026;39.230;9.122;2023-09-18T11:31:04;31.20;48.80
67598;DHT22;62026;39.230;9.122;2023-09-18T11:36:11;31.20;48.70
67598;DHT22;62026;39.230;9.122;2023-09-18T11:38:52;31.20;48.70
67598;DHT22;62026;39.230;9.122;2023-09-18T11:41:24;31.30;48.60
67598;DHT22;62026;39.230;9.122;2023-09-18T11:43:52;31.50;48.30
67598;DHT22;62026;39.230;9.122;2023-09-18T11:46:48;31.70;48.00
67598;DHT22;62026;39.230;9.122;2023-09-18T11:49:22;31.90;47.90
67598;DHT22;62026;39.230;9.122;2023-09-18T11:51:52;32.00;47.20
67598;DHT22;62026;39.230;9.122;2023-09-18T11:54:19;32.10;47.00
67598;DHT22;62026;39.230;9.122;2023-09-18T11:56:45;32.10;46.90
67598;DHT22;62026;39.230;9.122;2023-09-18T11:59:11;32.20;46.80
67598;DHT22;62026;39.230;9.122;2023-09-18T12:01:38;32.20;46.60
67598;DHT22;62026;39.230;9.122;2023-09-18T12:04:12;32.30;46.40
67598;DHT22;62026;39.230;9.122;2023-09-18T12:06:40;32.30;46.00
67598;DHT22;62026;39.230;9.122;2023-09-18T12:09:08;32.20;46.10
67598;DHT22;62026;39.230;9.122;2023-09-18T12:11:34;32.30;45.60
67598;DHT22;62026;39.230;9.122;2023-09-18T12:14:04;32.50;45.00
67598;DHT22;62026;39.230;9.122;2023-09-18T12:16:37;32.30;44.40
67598;DHT22;62026;39.230;9.122;2023-09-18T12:19:06;32.40;44.30
67598;DHT22;62026;39.230;9.122;2023-09-18T12:21:33;32.30;52.40
67598;DHT22;62026;39.230;9.122;2023-09-18T12:24:06;31.80;54.80
67598;DHT22;62026;39.230;9.122;2023-09-18T12:26:32;31.60;56.80
67598;DHT22;62026;39.230;9.122;2023-09-18T12:28:59;31.40;58.60
67598;DHT22;62026;39.230;9.122;2023-09-18T12:31:25;31.20;58.80
67598;DHT22;62026;39.230;9.122;2023-09-18T12:33:51;31.10;59.00
67598;DHT22;62026;39.230;9.122;2023-09-18T12:36:20;31.00;59.10
67598;DHT22;62026;39.230;9.122;2023-09-18T12:38:57;30.90;60.00
67598;DHT22;62026;39.230;9.122;2023-09-18T12:41:26;30.70;60.20
67598;DHT22;62026;39.230;9.122;2023-09-18T12:43:53;30.70;59.40
67598;DHT22;62026;39.230;9.122;2023-09-18T12:46:20;30.70;59.40
67598;DHT22;62026;39.230;9.122;2023-09-18T12:48:47;30.70;59.40
67598;DHT22;62026;39.230;9.122;2023-09-18T12:51:14;30.70;59.50
67598;DHT22;62026;39.230;9.122;2023-09-18T12:53:42;30.60;59.20
67598;DHT22;62026;39.230;9.122;2023-09-18T12:56:12;30.60;59.20
67598;DHT22;62026;39.230;9.122;2023-09-18T12:58:42;30.60;59.00
67598;DHT22;62026;39.230;9.122;2023-09-18T13:01:09;30.60;59.60
67598;DHT22;62026;39.230;9.122;2023-09-18T13:03:46;30.60;59.60
67598;DHT22;62026;39.230;9.122;2023-09-18T13:06:17;30.60;59.10
67598;DHT22;62026;39.230;9.122;2023-09-18T13:08:46;30.60;59.20
67598;DHT22;62026;39.230;9.122;2023-09-18T13:11:13;30.70;58.60
67598;DHT22;62026;39.230;9.122;2023-09-18T13:13:42;30.80;58.50
67598;DHT22;62026;39.230;9.122;2023-09-18T13:16:11;30.90;57.00
67598;DHT22;62026;39.230;9.122;2023-09-18T13:18:38;31.00;56.00
67598;DHT22;62026;39.230;9.122;2023-09-18T13:21:12;31.00;56.10
67598;DHT22;62026;39.230;9.122;2023-09-18T13:23:39;31.00;54.90
67598;DHT22;62026;39.230;9.122;2023-09-18T13:26:06;31.20;54.00
67598;DHT22;62026;39.230;9.122;2023-09-18T13:28:34;31.20;53.50
67598;DHT22;62026;39.230;9.122;2023-09-18T13:31:05;31.20;53.80
67598;DHT22;62026;39.230;9.122;2023-09-18T13:33:33;31.20;54.20
67598;DHT22;62026;39.230;9.122;2023-09-18T13:36:03;31.30;53.20
67598;DHT22;62026;39.230;9.122;2023-09-18T13:38:30;31.20;54.00
67598;DHT22;62026;39.230;9.122;2023-09-18T13:40:56;31.20;54.20
67598;DHT22;62026;39.230;9.122;2023-09-18T13:43:22;31.20;53.80
67598;DHT22;62026;39.230;9.122;2023-09-18T13:45:49;31.30;53.00
67598;DHT22;62026;39.230;9.122;2023-09-18T13:48:18;31.40;51.80
67598;DHT22;62026;39.230;9.122;2023-09-18T13:50:44;31.40;51.00
67598;DHT22;62026;39.230;9.122;2023-09-18T13:53:12;31.50;50.20
67598;DHT22;62026;39.230;9.122;2023-09-18T13:55:39;31.50;49.20
67598;DHT22;62026;39.230;9.122;2023-09-18T13:58:05;31.50;45.30
67598;DHT22;62026;39.230;9.122;2023-09-18T14:00:32;31.60;42.40
67598;DHT22;62026;39.230;9.122;2023-09-18T14:02:58;31.70;42.10
67598;DHT22;62026;39.230;9.122;2023-09-18T14:05:25;32.00;40.60
67598;DHT22;62026;39.230;9.122;2023-09-18T14:07:52;32.10;39.60
67598;DHT22;62026;39.230;9.122;2023-09-18T14:10:25;32.10;39.50
67598;DHT22;62026;39.230;9.122;2023-09-18T14:12:52;32.30;39.20
67598;DHT22;62026;39.230;9.122;2023-09-18T14:15:18;32.30;38.60
67598;DHT22;62026;39.230;9.122;2023-09-18T14:17:44;32.40;38.50
67598;DHT22;62026;39.230;9.122;2023-09-18T14:20:10;32.40;38.40
67598;DHT22;62026;39.230;9.122;2023-09-18T14:22:36;32.50;38.60
67598;DHT22;62026;39.230;9.122;2023-09-18T14:25:03;32.50;38.40
67598;DHT22;62026;39.230;9.122;2023-09-18T14:27:34;32.50;38.50
67598;DHT22;62026;39.230;9.122;2023-09-18T14:30:01;32.50;38.20
67598;DHT22;62026;39.230;9.122;2023-09-18T14:32:32;32.40;38.40
67598;DHT22;62026;39.230;9.122;2023-09-18T14:34:59;32.50;38.60
67598;DHT22;62026;39.230;9.122;2023-09-18T14:37:28;32.60;38.30
67598;DHT22;62026;39.230;9.122;2023-09-18T14:39:54;32.60;38.20
67598;DHT22;62026;39.230;9.122;2023-09-18T14:42:21;32.50;45.50
67598;DHT22;62026;39.230;9.122;2023-09-18T14:44:47;31.80;50.80
67598;DHT22;62026;39.230;9.122;2023-09-18T14:47:13;31.60;52.20
67598;DHT22;62026;39.230;9.122;2023-09-18T14:49:39;31.60;51.70
67598;DHT22;62026;39.230;9.122;2023-09-18T14:52:05;31.60;49.30
67598;DHT22;62026;39.230;9.122;2023-09-18T14:54:32;31.60;51.40
67598;DHT22;62026;39.230;9.122;2023-09-18T14:56:58;31.40;54.10
67598;DHT22;62026;39.230;9.122;2023-09-18T14:59:24;31.10;54.60
67598;DHT22;62026;39.230;9.122;2023-09-18T15:01:50;30.90;55.60
67598;DHT22;62026;39.230;9.122;2023-09-18T15:04:16;30.90;55.90
67598;DHT22;62026;39.230;9.122;2023-09-18T15:06:42;31.00;55.90
67598;DHT22;62026;39.230;9.122;2023-09-18T15:09:08;31.10;55.70
67598;DHT22;62026;39.230;9.122;2023-09-18T15:11:34;31.00;56.00
67598;DHT22;62026;39.230;9.122;2023-09-18T15:14:02;31.00;55.70
67598;DHT22;62026;39.230;9.122;2023-09-18T15:16:28;31.00;55.90
67598;DHT22;62026;39.230;9.122;2023-09-18T15:18:56;31.00;56.00
67598;DHT22;62026;39.230;9.122;2023-09-18T15:21:27;31.00;55.70
67598;DHT22;62026;39.230;9.122;2023-09-18T15:23:53;31.00;55.60
67598;DHT22;62026;39.230;9.122;2023-09-18T15:26:19;31.00;55.60
67598;DHT22;62026;39.230;9.122;2023-09-18T15:28:46;31.00;55.50
67598;DHT22;62026;39.230;9.122;2023-09-18T15:31:13;31.00;55.40
67598;DHT22;62026;39.230;9.122;2023-09-18T15:33:39;31.00;55.50
67598;DHT22;62026;39.230;9.122;2023-09-18T15:36:07;30.90;55.60
67598;DHT22;62026;39.230;9.122;2023-09-18T15:38:33;30.90;55.50
67598;DHT22;62026;39.230;9.122;2023-09-18T15:40:59;30.80;55.40
67598;DHT22;62026;39.230;9.122;2023-09-18T15:43:25;30.90;55.20